sensor_id;sensor_type;location;lat;lon;timestamp;P1;durP1;ratioP1;P2;durP2;ratioP2
35803;SDS011;21924;51.934;7.414;2023-06-22T00:01:09;16.95;;;10.57;;
35803;SDS011;21924;51.934;7.414;2023-06-22T00:03:53;17.08;;;10.45;;
35803;SDS011;21924;51.934;7.414;2023-06-22T00:06:37;18.87;;;11.37;;
35803;SDS011;21924;51.934;7.414;2023-06-22T00:09:21;17.60;;;10.68;;
35803;SDS011;21924;51.934;7.414;2023-06-22T00:12:06;18.33;;;11.35;;
35803;SDS011;21924;51.934;7.414;2023-06-22T00:14:50;17.73;;;11.45;;
35803;SDS011;21924;51.934;7.414;2023-06-22T00:17:35;18.77;;;11.60;;
35803;SDS011;21924;51.934;7.414;2023-06-22T00:20:19;16.05;;;10.88;;
35803;SDS011;21924;51.934;7.414;2023-06-22T00:23:04;16.05;;;11.27;;
35803;SDS011;21924;51.934;7.414;2023-06-22T00:25:52;18.17;;;12.45;;
35803;SDS011;21924;51.934;7.414;2023-06-22T00:28:36;19.02;;;11.85;;
35803;SDS011;21924;51.934;7.414;2023-06-22T00:31:21;17.98;;;11.98;;
35803;SDS011;21924;51.934;7.414;2023-06-22T00:34:05;19.35;;;12.15;;
35803;SDS011;21924;51.934;7.414;2023-06-22T00:36:52;19.60;;;12.43;;
35803;SDS011;21924;51.934;7.414;2023-06-22T00:39:36;17.27;;;11.18;;
35803;SDS011;21924;51.934;7.414;2023-06-22T00:42:20;18.52;;;10.98;;
35803;SDS011;21924;51.934;7.414;2023-06-22T00:45:05;17.38;;;11.48;;
35803;SDS011;21924;51.934;7.414;2023-06-22T00:47:54;17.90;;;11.45;;
35803;SDS011;21924;51.934;7.414;2023-06-22T00:50:40;18.80;;;11.35;;
35803;SDS011;21924;51.934;7.414;2023-06-22T00:53:24;21.88;;;12.35;;
35803;SDS011;21924;51.934;7.414;2023-06-22T00:56:09;19.63;;;12.43;;
35803;SDS011;21924;51.934;7.414;2023-06-22T00:58:57;18.75;;;11.90;;
35803;SDS011;21924;51.934;7.414;2023-06-22T01:01:43;20.45;;;12.65;;
35803;SDS011;21924;51.934;7.414;2023-06-22T01:04:33;17.88;;;11.68;;
35803;SDS011;21924;51.934;7.414;2023-06-22T01:10:21;22.33;;;12.82;;
35803;SDS011;21924;51.934;7.414;2023-06-22T01:13:25;19.05;;;12.38;;
35803;SDS011;21924;51.934;7.414;2023-06-22T01:16:29;18.53;;;11.73;;
35803;SDS011;21924;51.934;7.414;2023-06-22T01:29:02;19.00;;;12.35;;
35803;SDS011;21924;51.934;7.414;2023-06-22T01:31:48;17.85;;;11.23;;
35803;SDS011;21924;51.934;7.414;2023-06-22T01:34:34;20.25;;;11.95;;
35803;SDS011;21924;51.934;7.414;2023-06-22T01:37:20;18.35;;;12.30;;
35803;SDS011;21924;51.934;7.414;2023-06-22T01:40:05;18.75;;;11.60;;
35803;SDS011;21924;51.934;7.414;2023-06-22T01:42:51;19.27;;;12.15;;
35803;SDS011;21924;51.934;7.414;2023-06-22T01:45:37;17.73;;;11.30;;
35803;SDS011;21924;51.934;7.414;2023-06-22T01:48:22;18.60;;;12.10;;
35803;SDS011;21924;51.934;7.414;2023-06-22T01:51:06;17.73;;;11.63;;
35803;SDS011;21924;51.934;7.414;2023-06-22T01:53:51;19.05;;;12.20;;
35803;SDS011;21924;51.934;7.414;2023-06-22T01:56:36;19.35;;;11.48;;
35803;SDS011;21924;51.934;7.414;2023-06-22T01:59:25;18.48;;;11.88;;
35803;SDS011;21924;51.934;7.414;2023-06-22T02:02:19;18.17;;;11.20;;
35803;SDS011;21924;51.934;7.414;2023-06-22T02:05:10;18.20;;;11.13;;
35803;SDS011;21924;51.934;7.414;2023-06-22T02:11:02;19.52;;;11.77;;
35803;SDS011;21924;51.934;7.414;2023-06-22T02:13:48;21.25;;;11.57;;
35803;SDS011;21924;51.934;7.414;2023-06-22T02:16:33;16.80;;;11.02;;
35803;SDS011;21924;51.934;7.414;2023-06-22T02:19:22;18.65;;;11.27;;
35803;SDS011;21924;51.934;7.414;2023-06-22T02:22:07;19.58;;;11.23;;
35803;SDS011;21924;51.934;7.414;2023-06-22T02:24:51;20.35;;;11.57;;
35803;SDS011;21924;51.934;7.414;2023-06-22T02:27:36;19.80;;;11.82;;
35803;SDS011;21924;51.934;7.414;2023-06-22T02:30:24;17.25;;;11.57;;
35803;SDS011;21924;51.934;7.414;2023-06-22T02:33:08;17.23;;;10.98;;
35803;SDS011;21924;51.934;7.414;2023-06-22T02:35:52;15.70;;;10.88;;
35803;SDS011;21924;51.934;7.414;2023-06-22T02:38:37;18.15;;;11.90;;
35803;SDS011;21924;51.934;7.414;2023-06-22T02:41:21;17.58;;;11.00;;
35803;SDS011;21924;51.934;7.414;2023-06-22T02:44:05;20.33;;;11.60;;
35803;SDS011;21924;51.934;7.414;2023-06-22T02:46:50;17.85;;;11.18;;
35803;SDS011;21924;51.934;7.414;2023-06-22T02:49:34;18.92;;;11.93;;
35803;SDS011;21924;51.934;7.414;2023-06-22T02:52:19;20.02;;;11.77;;
35803;SDS011;21924;51.934;7.414;2023-06-22T02:55:03;17.63;;;11.20;;
35803;SDS011;21924;51.934;7.414;2023-06-22T02:57:48;19.17;;;12.23;;
35803;SDS011;21924;51.934;7.414;2023-06-22T03:00:36;19.42;;;12.00;;
35803;SDS011;21924;51.934;7.414;2023-06-22T03:03:20;17.33;;;11.52;;
35803;SDS011;21924;51.934;7.414;2023-06-22T03:06:04;19.15;;;11.23;;
35803;SDS011;21924;51.934;7.414;2023-06-22T03:08:49;19.60;;;11.60;;
35803;SDS011;21924;51.934;7.414;2023-06-22T03:11:34;18.83;;;11.47;;
35803;SDS011;21924;51.934;7.414;2023-06-22T03:14:18;20.65;;;12.45;;
35803;SDS011;21924;51.934;7.414;2023-06-22T03:17:03;19.58;;;11.90;;
35803;SDS011;21924;51.934;7.414;2023-06-22T03:19:49;18.55;;;11.50;;
35803;SDS011;21924;51.934;7.414;2023-06-22T03:22:33;22.42;;;12.07;;
35803;SDS011;21924;51.934;7.414;2023-06-22T03:25:17;20.83;;;11.55;;
35803;SDS011;21924;51.934;7.414;2023-06-22T03:28:01;17.40;;;11.07;;
35803;SDS011;21924;51.934;7.414;2023-06-22T03:30:46;19.60;;;12.05;;
35803;SDS011;21924;51.934;7.414;2023-06-22T03:33:30;17.45;;;11.45;;
35803;SDS011;21924;51.934;7.414;2023-06-22T03:36:14;19.70;;;12.25;;
35803;SDS011;21924;51.934;7.414;2023-06-22T03:39:02;16.35;;;11.15;;
35803;SDS011;21924;51.934;7.414;2023-06-22T03:41:46;17.80;;;10.95;;
35803;SDS011;21924;51.934;7.414;2023-06-22T03:44:30;21.07;;;11.60;;
35803;SDS011;21924;51.934;7.414;2023-06-22T03:47:15;17.70;;;11.18;;
35803;SDS011;21924;51.934;7.414;2023-06-22T03:49:59;16.80;;;11.07;;
35803;SDS011;21924;51.934;7.414;2023-06-22T03:52:44;19.63;;;11.20;;
35803;SDS011;21924;51.934;7.414;2023-06-22T03:55:28;16.52;;;10.90;;
35803;SDS011;21924;51.934;7.414;2023-06-22T03:58:12;19.60;;;10.90;;
35803;SDS011;21924;51.934;7.414;2023-06-22T04:00:57;16.60;;;10.60;;
35803;SDS011;21924;51.934;7.414;2023-06-22T04:03:41;16.63;;;10.40;;
35803;SDS011;21924;51.934;7.414;2023-06-22T04:06:25;17.77;;;11.52;;
35803;SDS011;21924;51.934;7.414;2023-06-22T04:09:09;18.15;;;10.70;;
35803;SDS011;21924;51.934;7.414;2023-06-22T04:11:54;17.88;;;11.25;;
35803;SDS011;21924;51.934;7.414;2023-06-22T04:14:38;15.32;;;10.55;;
35803;SDS011;21924;51.934;7.414;2023-06-22T04:17:22;19.05;;;10.57;;
35803;SDS011;21924;51.934;7.414;2023-06-22T04:20:08;17.23;;;10.95;;
35803;SDS011;21924;51.934;7.414;2023-06-22T04:22:53;18.50;;;10.90;;
35803;SDS011;21924;51.934;7.414;2023-06-22T04:25:37;18.35;;;9.95;;
35803;SDS011;21924;51.934;7.414;2023-06-22T04:28:21;17.42;;;10.10;;
35803;SDS011;21924;51.934;7.414;2023-06-22T04:31:06;17.93;;;10.47;;
35803;SDS011;21924;51.934;7.414;2023-06-22T04:33:50;15.25;;;9.82;;
35803;SDS011;21924;51.934;7.414;2023-06-22T04:36:37;15.15;;;10.35;;
35803;SDS011;21924;51.934;7.414;2023-06-22T04:39:23;14.43;;;10.20;;
35803;SDS011;21924;51.934;7.414;2023-06-22T04:42:08;15.27;;;10.00;;
35803;SDS011;21924;51.934;7.414;2023-06-22T04:44:52;16.80;;;9.65;;
35803;SDS011;21924;51.934;7.414;2023-06-22T04:47:37;15.88;;;9.93;;
35803;SDS011;21924;51.934;7.414;2023-06-22T04:50:22;14.40;;;9.73;;
35803;SDS011;21924;51.934;7.414;2023-06-22T04:53:07;16.35;;;9.98;;
35803;SDS011;21924;51.934;7.414;2023-06-22T04:55:53;15.57;;;9.87;;
35803;SDS011;21924;51.934;7.414;2023-06-22T04:58:38;15.00;;;9.63;;
35803;SDS011;21924;51.934;7.414;2023-06-22T05:01:23;14.60;;;10.00;;
35803;SDS011;21924;51.934;7.414;2023-06-22T05:04:07;14.93;;;9.45;;
35803;SDS011;21924;51.934;7.414;2023-06-22T05:06:52;16.80;;;9.68;;
35803;SDS011;21924;51.934;7.414;2023-06-22T05:09:37;14.83;;;9.57;;
35803;SDS011;21924;51.934;7.414;2023-06-22T05:12:21;15.52;;;10.10;;
35803;SDS011;21924;51.934;7.414;2023-06-22T05:15:06;15.57;;;9.82;;
35803;SDS011;21924;51.934;7.414;2023-06-22T05:17:52;18.52;;;9.48;;
35803;SDS011;21924;51.934;7.414;2023-06-22T05:20:36;15.43;;;10.20;;
35803;SDS011;21924;51.934;7.414;2023-06-22T05:23:20;17.35;;;10.55;;
35803;SDS011;21924;51.934;7.414;2023-06-22T05:26:04;18.52;;;9.82;;
35803;SDS011;21924;51.934;7.414;2023-06-22T05:28:49;16.13;;;9.90;;
35803;SDS011;21924;51.934;7.414;2023-06-22T05:31:33;19.05;;;10.70;;
35803;SDS011;21924;51.934;7.414;2023-06-22T05:34:18;16.30;;;10.03;;
35803;SDS011;21924;51.934;7.414;2023-06-22T05:37:02;15.50;;;9.68;;
35803;SDS011;21924;51.934;7.414;2023-06-22T05:39:47;15.88;;;10.25;;
35803;SDS011;21924;51.934;7.414;2023-06-22T05:42:31;16.20;;;9.88;;
35803;SDS011;21924;51.934;7.414;2023-06-22T05:45:15;15.25;;;9.95;;
35803;SDS011;21924;51.934;7.414;2023-06-22T05:48:00;13.80;;;10.17;;
35803;SDS011;21924;51.934;7.414;2023-06-22T05:50:44;14.98;;;9.85;;
35803;SDS011;21924;51.934;7.414;2023-06-22T05:53:29;17.67;;;10.30;;
35803;SDS011;21924;51.934;7.414;2023-06-22T05:56:13;15.70;;;10.02;;
35803;SDS011;21924;51.934;7.414;2023-06-22T05:58:57;20.05;;;10.48;;
35803;SDS011;21924;51.934;7.414;2023-06-22T06:01:41;15.57;;;10.25;;
35803;SDS011;21924;51.934;7.414;2023-06-22T06:04:26;15.60;;;10.00;;
35803;SDS011;21924;51.934;7.414;2023-06-22T06:07:10;16.17;;;9.77;;
35803;SDS011;21924;51.934;7.414;2023-06-22T06:09:54;20.23;;;10.32;;
35803;SDS011;21924;51.934;7.414;2023-06-22T06:12:38;17.80;;;10.82;;
35803;SDS011;21924;51.934;7.414;2023-06-22T06:15:23;15.18;;;9.63;;
35803;SDS011;21924;51.934;7.414;2023-06-22T06:18:07;17.52;;;10.13;;
35803;SDS011;21924;51.934;7.414;2023-06-22T06:20:51;16.80;;;10.73;;
35803;SDS011;21924;51.934;7.414;2023-06-22T06:23:35;15.90;;;9.95;;
35803;SDS011;21924;51.934;7.414;2023-06-22T06:26:20;15.63;;;9.30;;
35803;SDS011;21924;51.934;7.414;2023-06-22T06:29:13;15.77;;;10.30;;
35803;SDS011;21924;51.934;7.414;2023-06-22T06:31:59;14.20;;;9.40;;
35803;SDS011;21924;51.934;7.414;2023-06-22T06:34:43;15.30;;;9.45;;
35803;SDS011;21924;51.934;7.414;2023-06-22T06:37:28;18.98;;;10.32;;
35803;SDS011;21924;51.934;7.414;2023-06-22T06:40:13;15.52;;;10.10;;
35803;SDS011;21924;51.934;7.414;2023-06-22T06:42:58;14.70;;;10.02;;
35803;SDS011;21924;51.934;7.414;2023-06-22T06:45:42;17.95;;;9.73;;
35803;SDS011;21924;51.934;7.414;2023-06-22T06:48:27;15.27;;;9.70;;
35803;SDS011;21924;51.934;7.414;2023-06-22T06:51:11;16.00;;;9.75;;
35803;SDS011;21924;51.934;7.414;2023-06-22T06:53:55;14.23;;;9.95;;
35803;SDS011;21924;51.934;7.414;2023-06-22T06:56:39;14.68;;;9.27;;
35803;SDS011;21924;51.934;7.414;2023-06-22T06:59:24;15.85;;;9.80;;
35803;SDS011;21924;51.934;7.414;2023-06-22T07:02:08;16.27;;;10.25;;
35803;SDS011;21924;51.934;7.414;2023-06-22T07:04:53;17.05;;;9.63;;
35803;SDS011;21924;51.934;7.414;2023-06-22T07:07:39;17.02;;;9.90;;
35803;SDS011;21924;51.934;7.414;2023-06-22T07:10:25;16.65;;;9.77;;
35803;SDS011;21924;51.934;7.414;2023-06-22T07:13:11;16.55;;;10.10;;
35803;SDS011;21924;51.934;7.414;2023-06-22T07:15:55;15.52;;;10.23;;
35803;SDS011;21924;51.934;7.414;2023-06-22T07:18:39;14.97;;;9.93;;
35803;SDS011;21924;51.934;7.414;2023-06-22T07:21:24;18.27;;;11.00;;
35803;SDS011;21924;51.934;7.414;2023-06-22T07:24:08;14.80;;;10.07;;
35803;SDS011;21924;51.934;7.414;2023-06-22T07:26:53;16.05;;;10.13;;
35803;SDS011;21924;51.934;7.414;2023-06-22T07:29:37;19.63;;;10.55;;
35803;SDS011;21924;51.934;7.414;2023-06-22T07:32:23;14.82;;;9.40;;
35803;SDS011;21924;51.934;7.414;2023-06-22T07:35:08;14.93;;;10.15;;
35803;SDS011;21924;51.934;7.414;2023-06-22T07:37:52;16.23;;;9.90;;
35803;SDS011;21924;51.934;7.414;2023-06-22T07:40:36;17.35;;;10.68;;
35803;SDS011;21924;51.934;7.414;2023-06-22T07:43:21;16.35;;;10.18;;
35803;SDS011;21924;51.934;7.414;2023-06-22T07:46:05;18.05;;;10.38;;
35803;SDS011;21924;51.934;7.414;2023-06-22T07:48:50;15.68;;;9.65;;
35803;SDS011;21924;51.934;7.414;2023-06-22T07:51:35;14.95;;;9.93;;
35803;SDS011;21924;51.934;7.414;2023-06-22T07:54:19;17.40;;;9.77;;
35803;SDS011;21924;51.934;7.414;2023-06-22T07:57:03;17.08;;;10.13;;
35803;SDS011;21924;51.934;7.414;2023-06-22T07:59:48;13.90;;;9.68;;
35803;SDS011;21924;51.934;7.414;2023-06-22T08:02:32;14.45;;;9.55;;
35803;SDS011;21924;51.934;7.414;2023-06-22T08:05:17;17.05;;;10.50;;
35803;SDS011;21924;51.934;7.414;2023-06-22T08:08:01;16.65;;;10.18;;
35803;SDS011;21924;51.934;7.414;2023-06-22T08:10:45;16.70;;;10.18;;
35803;SDS011;21924;51.934;7.414;2023-06-22T08:13:29;15.70;;;10.23;;
35803;SDS011;21924;51.934;7.414;2023-06-22T08:16:14;16.70;;;9.45;;
35803;SDS011;21924;51.934;7.414;2023-06-22T08:18:58;16.93;;;10.20;;
35803;SDS011;21924;51.934;7.414;2023-06-22T08:21:42;16.98;;;9.80;;
35803;SDS011;21924;51.934;7.414;2023-06-22T08:24:27;18.52;;;10.25;;
35803;SDS011;21924;51.934;7.414;2023-06-22T08:27:14;19.35;;;10.15;;
35803;SDS011;21924;51.934;7.414;2023-06-22T08:30:06;16.95;;;9.23;;
35803;SDS011;21924;51.934;7.414;2023-06-22T08:32:51;16.13;;;9.37;;
35803;SDS011;21924;51.934;7.414;2023-06-22T08:35:35;16.95;;;9.18;;
35803;SDS011;21924;51.934;7.414;2023-06-22T08:38:19;17.05;;;9.13;;
35803;SDS011;21924;51.934;7.414;2023-06-22T08:41:03;13.65;;;8.82;;
35803;SDS011;21924;51.934;7.414;2023-06-22T08:43:48;14.27;;;8.82;;
35803;SDS011;21924;51.934;7.414;2023-06-22T08:46:32;14.10;;;8.98;;
35803;SDS011;21924;51.934;7.414;2023-06-22T08:49:17;15.93;;;9.63;;
35803;SDS011;21924;51.934;7.414;2023-06-22T08:52:01;14.98;;;9.77;;
35803;SDS011;21924;51.934;7.414;2023-06-22T08:54:46;15.37;;;9.90;;
35803;SDS011;21924;51.934;7.414;2023-06-22T08:57:30;17.10;;;9.90;;
35803;SDS011;21924;51.934;7.414;2023-06-22T09:00:16;14.25;;;9.65;;
35803;SDS011;21924;51.934;7.414;2023-06-22T09:03:03;16.85;;;10.10;;
35803;SDS011;21924;51.934;7.414;2023-06-22T09:05:48;16.35;;;10.40;;
35803;SDS011;21924;51.934;7.414;2023-06-22T09:08:32;16.27;;;9.75;;
35803;SDS011;21924;51.934;7.414;2023-06-22T09:11:16;15.55;;;10.10;;
35803;SDS011;21924;51.934;7.414;2023-06-22T09:14:00;17.48;;;10.77;;
35803;SDS011;21924;51.934;7.414;2023-06-22T09:16:45;18.10;;;10.65;;
35803;SDS011;21924;51.934;7.414;2023-06-22T09:19:29;16.63;;;10.63;;
35803;SDS011;21924;51.934;7.414;2023-06-22T09:22:13;18.50;;;10.75;;
35803;SDS011;21924;51.934;7.414;2023-06-22T09:24:58;16.92;;;10.25;;
35803;SDS011;21924;51.934;7.414;2023-06-22T09:27:43;16.37;;;10.70;;
35803;SDS011;21924;51.934;7.414;2023-06-22T09:30:27;17.20;;;10.07;;
35803;SDS011;21924;51.934;7.414;2023-06-22T09:33:12;16.73;;;10.57;;
35803;SDS011;21924;51.934;7.414;2023-06-22T09:35:56;15.05;;;10.23;;
35803;SDS011;21924;51.934;7.414;2023-06-22T09:38:40;15.45;;;10.13;;
35803;SDS011;21924;51.934;7.414;2023-06-22T09:41:24;15.65;;;10.57;;
35803;SDS011;21924;51.934;7.414;2023-06-22T09:44:09;15.60;;;9.80;;
35803;SDS011;21924;51.934;7.414;2023-06-22T09:46:53;15.50;;;10.10;;
35803;SDS011;21924;51.934;7.414;2023-06-22T09:49:37;16.33;;;10.13;;
35803;SDS011;21924;51.934;7.414;2023-06-22T09:52:22;19.38;;;10.32;;
35803;SDS011;21924;51.934;7.414;2023-06-22T09:55:06;16.33;;;10.18;;
35803;SDS011;21924;51.934;7.414;2023-06-22T09:57:51;14.77;;;10.00;;
35803;SDS011;21924;51.934;7.414;2023-06-22T10:00:35;20.23;;;11.02;;
35803;SDS011;21924;51.934;7.414;2023-06-22T10:03:20;16.23;;;10.35;;
35803;SDS011;21924;51.934;7.414;2023-06-22T10:06:04;17.37;;;10.77;;
35803;SDS011;21924;51.934;7.414;2023-06-22T10:08:49;15.50;;;10.32;;
35803;SDS011;21924;51.934;7.414;2023-06-22T10:11:35;19.40;;;11.32;;
35803;SDS011;21924;51.934;7.414;2023-06-22T10:14:19;16.92;;;10.70;;
35803;SDS011;21924;51.934;7.414;2023-06-22T10:17:03;23.80;;;11.20;;
35803;SDS011;21924;51.934;7.414;2023-06-22T10:19:50;15.10;;;10.30;;
35803;SDS011;21924;51.934;7.414;2023-06-22T10:22:34;17.60;;;11.05;;
35803;SDS011;21924;51.934;7.414;2023-06-22T10:25:19;13.97;;;9.83;;
35803;SDS011;21924;51.934;7.414;2023-06-22T10:28:03;16.95;;;10.15;;
35803;SDS011;21924;51.934;7.414;2023-06-22T10:30:47;16.57;;;10.43;;
35803;SDS011;21924;51.934;7.414;2023-06-22T10:33:31;16.92;;;10.75;;
35803;SDS011;21924;51.934;7.414;2023-06-22T10:36:16;17.13;;;10.88;;
35803;SDS011;21924;51.934;7.414;2023-06-22T10:39:00;16.65;;;11.07;;
35803;SDS011;21924;51.934;7.414;2023-06-22T10:41:45;19.98;;;11.10;;
35803;SDS011;21924;51.934;7.414;2023-06-22T10:44:30;17.27;;;11.18;;
35803;SDS011;21924;51.934;7.414;2023-06-22T10:47:14;19.63;;;11.00;;
35803;SDS011;21924;51.934;7.414;2023-06-22T10:49:58;18.75;;;11.60;;
35803;SDS011;21924;51.934;7.414;2023-06-22T10:52:42;20.63;;;10.75;;
35803;SDS011;21924;51.934;7.414;2023-06-22T10:55:27;18.67;;;10.63;;
35803;SDS011;21924;51.934;7.414;2023-06-22T10:58:11;17.23;;;10.48;;
35803;SDS011;21924;51.934;7.414;2023-06-22T11:00:55;16.08;;;10.50;;
35803;SDS011;21924;51.934;7.414;2023-06-22T11:03:39;16.73;;;10.52;;
35803;SDS011;21924;51.934;7.414;2023-06-22T11:06:24;15.15;;;10.63;;
35803;SDS011;21924;51.934;7.414;2023-06-22T11:09:08;19.13;;;11.40;;
35803;SDS011;21924;51.934;7.414;2023-06-22T11:11:52;14.70;;;10.60;;
35803;SDS011;21924;51.934;7.414;2023-06-22T11:14:38;17.10;;;11.02;;
35803;SDS011;21924;51.934;7.414;2023-06-22T11:17:22;14.52;;;10.13;;
35803;SDS011;21924;51.934;7.414;2023-06-22T11:20:07;15.27;;;10.18;;
35803;SDS011;21924;51.934;7.414;2023-06-22T11:22:55;14.07;;;10.30;;
35803;SDS011;21924;51.934;7.414;2023-06-22T11:25:39;15.57;;;9.83;;
35803;SDS011;21924;51.934;7.414;2023-06-22T11:28:26;16.02;;;10.23;;
35803;SDS011;21924;51.934;7.414;2023-06-22T11:31:10;17.15;;;10.18;;
35803;SDS011;21924;51.934;7.414;2023-06-22T11:33:55;15.52;;;9.98;;
35803;SDS011;21924;51.934;7.414;2023-06-22T11:36:39;14.68;;;8.73;;
35803;SDS011;21924;51.934;7.414;2023-06-22T11:39:23;15.02;;;9.32;;
35803;SDS011;21924;51.934;7.414;2023-06-22T11:42:08;15.10;;;9.90;;
35803;SDS011;21924;51.934;7.414;2023-06-22T11:44:53;18.20;;;10.05;;
35803;SDS011;21924;51.934;7.414;2023-06-22T11:47:37;17.35;;;10.57;;
35803;SDS011;21924;51.934;7.414;2023-06-22T11:50:22;19.92;;;10.20;;
35803;SDS011;21924;51.934;7.414;2023-06-22T11:53:07;17.48;;;9.88;;
35803;SDS011;21924;51.934;7.414;2023-06-22T11:55:51;15.68;;;9.63;;
35803;SDS011;21924;51.934;7.414;2023-06-22T11:58:37;16.40;;;9.82;;
35803;SDS011;21924;51.934;7.414;2023-06-22T12:01:22;17.23;;;10.43;;
35803;SDS011;21924;51.934;7.414;2023-06-22T12:04:06;17.77;;;9.73;;
35803;SDS011;21924;51.934;7.414;2023-06-22T12:06:50;18.92;;;9.45;;
35803;SDS011;21924;51.934;7.414;2023-06-22T12:09:34;16.27;;;10.50;;
35803;SDS011;21924;51.934;7.414;2023-06-22T12:12:19;21.88;;;10.55;;
35803;SDS011;21924;51.934;7.414;2023-06-22T12:15:03;17.73;;;10.10;;
35803;SDS011;21924;51.934;7.414;2023-06-22T12:17:48;20.13;;;11.23;;
35803;SDS011;21924;51.934;7.414;2023-06-22T12:20:32;20.35;;;11.43;;
35803;SDS011;21924;51.934;7.414;2023-06-22T12:23:16;18.17;;;11.52;;
35803;SDS011;21924;51.934;7.414;2023-06-22T12:26:01;17.95;;;11.88;;
35803;SDS011;21924;51.934;7.414;2023-06-22T12:28:45;20.80;;;11.90;;
35803;SDS011;21924;51.934;7.414;2023-06-22T12:31:30;19.55;;;11.38;;
35803;SDS011;21924;51.934;7.414;2023-06-22T12:34:15;18.33;;;11.25;;
35803;SDS011;21924;51.934;7.414;2023-06-22T12:36:59;24.83;;;12.40;;
35803;SDS011;21924;51.934;7.414;2023-06-22T12:39:43;22.80;;;12.20;;
35803;SDS011;21924;51.934;7.414;2023-06-22T12:42:28;20.77;;;12.30;;
35803;SDS011;21924;51.934;7.414;2023-06-22T12:45:12;20.05;;;10.80;;
35803;SDS011;21924;51.934;7.414;2023-06-22T12:47:57;20.13;;;12.18;;
35803;SDS011;21924;51.934;7.414;2023-06-22T12:50:41;19.23;;;12.80;;
35803;SDS011;21924;51.934;7.414;2023-06-22T12:53:25;22.95;;;12.55;;
35803;SDS011;21924;51.934;7.414;2023-06-22T12:58:55;32.35;;;13.50;;
35803;SDS011;21924;51.934;7.414;2023-06-22T13:01:39;25.67;;;13.40;;
35803;SDS011;21924;51.934;7.414;2023-06-22T13:04:23;29.27;;;13.60;;
35803;SDS011;21924;51.934;7.414;2023-06-22T13:07:08;25.48;;;13.75;;
35803;SDS011;21924;51.934;7.414;2023-06-22T13:09:53;29.77;;;14.38;;
35803;SDS011;21924;51.934;7.414;2023-06-22T13:12:37;29.50;;;15.13;;
35803;SDS011;21924;51.934;7.414;2023-06-22T13:15:21;26.33;;;15.48;;
35803;SDS011;21924;51.934;7.414;2023-06-22T13:18:05;28.13;;;15.68;;
35803;SDS011;21924;51.934;7.414;2023-06-22T13:20:50;25.30;;;15.57;;
35803;SDS011;21924;51.934;7.414;2023-06-22T13:23:34;28.42;;;14.20;;
35803;SDS011;21924;51.934;7.414;2023-06-22T13:26:19;28.77;;;16.73;;
35803;SDS011;21924;51.934;7.414;2023-06-22T13:29:04;22.88;;;14.55;;
35803;SDS011;21924;51.934;7.414;2023-06-22T13:31:48;26.83;;;15.43;;
35803;SDS011;21924;51.934;7.414;2023-06-22T13:34:32;26.67;;;15.57;;
35803;SDS011;21924;51.934;7.414;2023-06-22T13:37:16;28.25;;;16.08;;
35803;SDS011;21924;51.934;7.414;2023-06-22T13:40:01;26.95;;;15.57;;
35803;SDS011;21924;51.934;7.414;2023-06-22T13:42:49;27.65;;;15.35;;
35803;SDS011;21924;51.934;7.414;2023-06-22T13:45:33;27.23;;;15.45;;
35803;SDS011;21924;51.934;7.414;2023-06-22T13:48:17;23.90;;;15.65;;
35803;SDS011;21924;51.934;7.414;2023-06-22T13:51:01;22.27;;;15.23;;
35803;SDS011;21924;51.934;7.414;2023-06-22T13:53:46;28.48;;;15.18;;
35803;SDS011;21924;51.934;7.414;2023-06-22T13:56:30;23.65;;;14.23;;
35803;SDS011;21924;51.934;7.414;2023-06-22T14:02:00;21.98;;;14.70;;
35803;SDS011;21924;51.934;7.414;2023-06-22T14:04:44;23.70;;;14.50;;
35803;SDS011;21924;51.934;7.414;2023-06-22T14:07:28;20.38;;;13.65;;
35803;SDS011;21924;51.934;7.414;2023-06-22T14:10:13;24.00;;;14.40;;
35803;SDS011;21924;51.934;7.414;2023-06-22T14:12:57;25.23;;;16.27;;
35803;SDS011;21924;51.934;7.414;2023-06-22T14:15:43;21.98;;;14.82;;
35803;SDS011;21924;51.934;7.414;2023-06-22T14:18:27;22.88;;;14.00;;
35803;SDS011;21924;51.934;7.414;2023-06-22T14:21:12;27.90;;;14.55;;
35803;SDS011;21924;51.934;7.414;2023-06-22T14:23:56;25.13;;;14.30;;
35803;SDS011;21924;51.934;7.414;2023-06-22T14:26:40;23.20;;;13.90;;
35803;SDS011;21924;51.934;7.414;2023-06-22T14:29:25;21.08;;;14.07;;
35803;SDS011;21924;51.934;7.414;2023-06-22T14:32:09;26.60;;;14.15;;
35803;SDS011;21924;51.934;7.414;2023-06-22T14:34:54;31.45;;;16.10;;
35803;SDS011;21924;51.934;7.414;2023-06-22T14:37:38;22.90;;;14.45;;
35803;SDS011;21924;51.934;7.414;2023-06-22T14:40:22;24.45;;;15.27;;
35803;SDS011;21924;51.934;7.414;2023-06-22T14:43:06;24.42;;;14.13;;
35803;SDS011;21924;51.934;7.414;2023-06-22T14:45:51;23.98;;;14.70;;
35803;SDS011;21924;51.934;7.414;2023-06-22T14:48:35;23.38;;;15.10;;
35803;SDS011;21924;51.934;7.414;2023-06-22T14:51:19;23.65;;;15.00;;
35803;SDS011;21924;51.934;7.414;2023-06-22T14:54:04;22.17;;;13.88;;
35803;SDS011;21924;51.934;7.414;2023-06-22T14:56:48;23.65;;;15.25;;
35803;SDS011;21924;51.934;7.414;2023-06-22T14:59:32;25.00;;;14.63;;
35803;SDS011;21924;51.934;7.414;2023-06-22T15:02:16;25.77;;;13.73;;
35803;SDS011;21924;51.934;7.414;2023-06-22T15:05:01;24.35;;;14.65;;
35803;SDS011;21924;51.934;7.414;2023-06-22T15:07:45;23.02;;;14.50;;
35803;SDS011;21924;51.934;7.414;2023-06-22T15:10:29;24.02;;;14.68;;
35803;SDS011;21924;51.934;7.414;2023-06-22T15:13:13;26.52;;;16.30;;
35803;SDS011;21924;51.934;7.414;2023-06-22T15:15:58;25.85;;;13.70;;
35803;SDS011;21924;51.934;7.414;2023-06-22T15:18:42;24.15;;;15.40;;
35803;SDS011;21924;51.934;7.414;2023-06-22T15:21:26;25.25;;;15.00;;
35803;SDS011;21924;51.934;7.414;2023-06-22T15:24:11;27.55;;;17.45;;
35803;SDS011;21924;51.934;7.414;2023-06-22T15:26:55;25.92;;;16.23;;
35803;SDS011;21924;51.934;7.414;2023-06-22T15:29:39;27.30;;;16.60;;
35803;SDS011;21924;51.934;7.414;2023-06-22T15:32:24;25.92;;;16.95;;
35803;SDS011;21924;51.934;7.414;2023-06-22T15:35:08;29.13;;;17.27;;
35803;SDS011;21924;51.934;7.414;2023-06-22T15:37:53;26.30;;;15.60;;
35803;SDS011;21924;51.934;7.414;2023-06-22T15:40:37;27.02;;;17.02;;
35803;SDS011;21924;51.934;7.414;2023-06-22T15:43:21;29.95;;;17.40;;
35803;SDS011;21924;51.934;7.414;2023-06-22T15:46:05;28.65;;;18.48;;
35803;SDS011;21924;51.934;7.414;2023-06-22T15:48:50;31.90;;;17.35;;
35803;SDS011;21924;51.934;7.414;2023-06-22T15:51:34;24.75;;;16.75;;
35803;SDS011;21924;51.934;7.414;2023-06-22T15:54:19;32.85;;;18.45;;
35803;SDS011;21924;51.934;7.414;2023-06-22T15:57:03;27.60;;;17.08;;
35803;SDS011;21924;51.934;7.414;2023-06-22T15:59:47;31.33;;;16.10;;
35803;SDS011;21924;51.934;7.414;2023-06-22T16:02:31;23.42;;;15.23;;
35803;SDS011;21924;51.934;7.414;2023-06-22T16:05:16;23.27;;;15.32;;
35803;SDS011;21924;51.934;7.414;2023-06-22T16:08:00;24.58;;;15.80;;
35803;SDS011;21924;51.934;7.414;2023-06-22T16:10:44;25.98;;;14.55;;
35803;SDS011;21924;51.934;7.414;2023-06-22T16:13:28;23.95;;;13.88;;
35803;SDS011;21924;51.934;7.414;2023-06-22T16:16:13;21.95;;;15.30;;
35803;SDS011;21924;51.934;7.414;2023-06-22T16:18:59;24.98;;;16.52;;
35803;SDS011;21924;51.934;7.414;2023-06-22T16:21:43;25.45;;;16.50;;
35803;SDS011;21924;51.934;7.414;2023-06-22T16:24:28;27.50;;;16.52;;
35803;SDS011;21924;51.934;7.414;2023-06-22T16:27:12;24.17;;;15.17;;